createdAt,value
2023-05-19T00:02:14.513Z,1
2023-05-19T00:03:57.917Z,1
2023-05-19T00:05:41.295Z,1
2023-05-19T00:07:24.700Z,0
2023-05-19T00:09:08.092Z,0
2023-05-19T00:10:51.481Z,1
2023-05-19T00:12:34.873Z,1
2023-05-19T00:14:18.280Z,1
2023-05-19T00:16:01.985Z,1
2023-05-19T00:17:45.375Z,1
2023-05-19T00:19:28.776Z,1
2023-05-19T00:21:12.230Z,1
2023-05-19T00:22:55.589Z,1
2023-05-19T00:24:38.963Z,1
2023-05-19T00:31:32.259Z,1
2023-05-19T00:33:15.613Z,1
2023-05-19T00:34:59.035Z,1
2023-05-19T00:36:42.422Z,1
2023-05-19T00:38:25.833Z,1
2023-05-19T00:40:09.216Z,1
2023-05-19T00:41:52.619Z,1
2023-05-19T00:43:36.023Z,1
2023-05-19T00:45:19.706Z,1
2023-05-19T00:47:03.102Z,1
2023-05-19T00:48:46.526Z,1
2023-05-19T00:50:29.898Z,1
2023-05-19T00:52:13.286Z,1
2023-05-19T00:53:56.681Z,1
2023-05-19T00:55:40.088Z,1
2023-05-19T00:57:23.471Z,1
2023-05-19T00:59:07.193Z,0
2023-05-19T01:00:50.585Z,1
2023-05-19T01:02:33.985Z,0
2023-05-19T01:04:17.382Z,0
2023-05-19T01:06:00.756Z,1
2023-05-19T01:07:44.164Z,1
2023-05-19T01:09:27.635Z,1
2023-05-19T01:11:10.976Z,1
2023-05-19T01:14:37.437Z,1
2023-05-19T01:16:20.823Z,1
2023-05-19T01:18:04.231Z,1
2023-05-19T01:19:47.623Z,1
2023-05-19T01:21:31.018Z,1
2023-05-19T01:23:14.397Z,1
2023-05-19T01:24:57.861Z,1
2023-05-19T01:26:41.243Z,1
2023-05-19T01:30:07.663Z,1
2023-05-19T01:31:51.110Z,0
2023-05-19T01:33:34.521Z,1
2023-05-19T01:35:17.848Z,0
2023-05-19T01:37:01.252Z,0
2023-05-19T01:38:44.650Z,0
2023-05-19T01:40:28.039Z,1
2023-05-19T01:42:11.454Z,1
2023-05-19T01:45:37.918Z,1
2023-05-19T01:47:21.342Z,1
2023-05-19T01:49:04.706Z,0
2023-05-19T01:50:48.104Z,1
2023-05-19T01:52:31.512Z,0
2023-05-19T01:54:14.893Z,0
2023-05-19T01:55:58.301Z,1
2023-05-19T01:57:41.687Z,1
2023-05-19T01:59:25.403Z,1
2023-05-19T02:01:08.803Z,1
2023-05-19T02:02:52.208Z,0
2023-05-19T02:04:35.589Z,1
2023-05-19T02:06:18.993Z,1
2023-05-19T02:08:02.383Z,1
2023-05-19T02:09:45.765Z,1
2023-05-19T02:11:29.225Z,1
2023-05-19T02:16:38.408Z,1
2023-05-19T02:18:21.794Z,1
2023-05-19T02:20:05.203Z,1
2023-05-19T02:21:48.584Z,1
2023-05-19T02:23:31.997Z,1
2023-05-19T02:25:15.376Z,1
2023-05-19T02:26:58.787Z,1
2023-05-19T02:28:42.217Z,1
2023-05-19T02:32:08.653Z,1
2023-05-19T02:33:52.067Z,1
2023-05-19T02:35:35.458Z,0
2023-05-19T02:37:18.836Z,1
2023-05-19T02:39:02.242Z,1
2023-05-19T02:40:45.636Z,1
2023-05-19T02:42:29.022Z,1
2023-05-19T02:44:12.425Z,1
2023-05-19T02:47:38.885Z,1
2023-05-19T02:49:22.296Z,1
2023-05-19T02:51:05.696Z,1
2023-05-19T02:52:49.093Z,1
2023-05-19T02:54:32.477Z,1
2023-05-19T02:56:15.892Z,1
2023-05-19T02:57:59.272Z,1
2023-05-19T02:59:42.685Z,1
2023-05-19T03:03:09.144Z,1
2023-05-19T03:04:52.539Z,1
2023-05-19T03:06:35.926Z,1
2023-05-19T03:08:19.322Z,1
2023-05-19T03:10:02.721Z,1
2023-05-19T03:11:46.136Z,1
2023-05-19T03:13:29.524Z,1
2023-05-19T03:15:12.935Z,0
2023-05-19T03:18:39.390Z,1
2023-05-19T03:20:22.786Z,1
2023-05-19T03:22:06.172Z,2
2023-05-19T03:23:49.610Z,2
2023-05-19T03:25:33.000Z,1
2023-05-19T03:27:16.354Z,1
2023-05-19T03:28:59.766Z,1
2023-05-19T03:30:43.184Z,2
2023-05-19T03:35:52.392Z,2
2023-05-19T03:37:35.796Z,2
2023-05-19T03:39:19.204Z,2
2023-05-19T03:41:02.601Z,2
2023-05-19T03:42:45.982Z,2
2023-05-19T03:44:29.392Z,2
2023-05-19T03:46:12.792Z,2
2023-05-19T03:51:22.018Z,3
2023-05-19T03:53:05.418Z,4
2023-05-19T03:54:48.820Z,3
2023-05-19T03:56:32.242Z,4
2023-05-19T03:58:15.659Z,4
2023-05-19T03:59:59.106Z,5
2023-05-19T04:01:42.394Z,5
2023-05-19T04:06:51.638Z,7
2023-05-19T04:08:35.038Z,7
2023-05-19T04:10:18.436Z,8
2023-05-19T04:12:01.833Z,9
2023-05-19T04:13:45.222Z,9
2023-05-19T04:15:28.610Z,9
2023-05-19T04:17:12.024Z,11
2023-05-19T04:18:55.415Z,11
2023-05-19T04:20:39.105Z,12
2023-05-19T04:22:22.509Z,12
2023-05-19T04:24:05.900Z,13
2023-05-19T04:25:49.306Z,14
2023-05-19T04:27:32.701Z,14
2023-05-19T04:29:16.107Z,14
2023-05-19T04:30:59.500Z,15
2023-05-19T04:32:42.891Z,16
2023-05-19T04:36:09.361Z,17
2023-05-19T04:37:52.753Z,17
2023-05-19T04:39:36.167Z,18
2023-05-19T04:41:19.557Z,19
2023-05-19T04:43:02.960Z,19
2023-05-19T04:44:46.327Z,20
2023-05-19T04:46:29.727Z,22
2023-05-19T04:48:13.144Z,22
2023-05-19T04:51:39.610Z,27
2023-05-19T04:53:22.990Z,26
2023-05-19T04:55:06.404Z,27
2023-05-19T04:56:49.796Z,29
2023-05-19T04:58:33.181Z,29
2023-05-19T05:00:16.576Z,29
2023-05-19T05:01:59.972Z,29
2023-05-19T05:03:43.373Z,31
2023-05-19T05:07:09.850Z,34
2023-05-19T05:08:53.233Z,42
2023-05-19T05:10:36.642Z,41
2023-05-19T05:12:20.024Z,45
2023-05-19T05:14:03.422Z,45
2023-05-19T05:15:46.810Z,48
2023-05-19T05:17:30.211Z,49
2023-05-19T05:19:13.621Z,50
2023-05-19T05:22:40.083Z,59
2023-05-19T05:24:23.481Z,60
2023-05-19T05:26:06.883Z,60
2023-05-19T05:27:50.269Z,63
2023-05-19T05:29:33.664Z,63
2023-05-19T05:31:17.077Z,63
2023-05-19T05:33:00.453Z,64
2023-05-19T05:34:43.857Z,64
2023-05-19T05:38:10.328Z,64
2023-05-19T05:39:53.756Z,64
2023-05-19T05:41:37.135Z,64
2023-05-19T05:43:20.528Z,65
2023-05-19T05:45:03.914Z,62
2023-05-19T05:46:47.346Z,64
2023-05-19T05:48:30.705Z,64
2023-05-19T05:50:14.116Z,63
2023-05-19T05:53:40.589Z,63
2023-05-19T05:55:23.981Z,65
2023-05-19T05:57:07.363Z,65
2023-05-19T06:00:34.156Z,66
2023-05-19T06:02:17.565Z,67
2023-05-19T06:04:00.956Z,68
2023-05-19T06:05:44.334Z,67
2023-05-19T06:10:53.607Z,69
2023-05-19T06:12:36.992Z,72
2023-05-19T06:14:20.379Z,72
2023-05-19T06:16:03.776Z,72
2023-05-19T06:17:47.176Z,71
2023-05-19T06:19:30.579Z,70
2023-05-19T06:21:13.966Z,71
2023-05-19T06:22:57.379Z,63
2023-05-19T06:28:06.597Z,37
2023-05-19T06:29:50.005Z,40
2023-05-19T06:31:33.437Z,41
2023-05-19T06:33:16.796Z,43
2023-05-19T06:35:00.192Z,46
2023-05-19T06:36:43.600Z,49
2023-05-19T06:38:27.018Z,54
2023-05-19T06:40:10.430Z,58
2023-05-19T06:45:19.621Z,61
2023-05-19T06:47:02.998Z,62
2023-05-19T06:48:46.415Z,63
2023-05-19T06:50:29.795Z,65
2023-05-19T06:52:13.217Z,68
2023-05-19T06:53:56.633Z,71
2023-05-19T06:55:39.997Z,73
2023-05-19T06:57:23.394Z,75
2023-05-19T07:00:49.866Z,74
2023-05-19T07:02:33.258Z,73
2023-05-19T07:04:16.656Z,74
2023-05-19T07:06:00.075Z,72
2023-05-19T07:07:43.456Z,73
2023-05-19T07:09:26.877Z,75
2023-05-19T07:11:10.258Z,76
2023-05-19T07:12:53.629Z,71
2023-05-19T07:18:03.001Z,65
2023-05-19T07:19:46.277Z,65
2023-05-19T07:21:29.670Z,63
2023-05-19T07:24:56.468Z,51
2023-05-19T07:26:39.884Z,49
2023-05-19T07:28:23.268Z,48
2023-05-19T07:30:06.691Z,47
2023-05-19T07:33:33.127Z,52
2023-05-19T07:35:16.501Z,50
2023-05-19T07:36:59.928Z,49
2023-05-19T07:38:43.317Z,48
2023-05-19T07:40:26.713Z,48
2023-05-19T07:42:10.120Z,47
2023-05-19T07:43:53.535Z,46
2023-05-19T07:45:36.898Z,43
2023-05-19T07:50:46.268Z,47
2023-05-19T07:52:29.558Z,49
2023-05-19T07:54:12.914Z,52
2023-05-19T07:55:56.365Z,60
2023-05-19T07:57:39.726Z,67
2023-05-19T07:59:23.128Z,71
2023-05-19T08:01:06.576Z,70
2023-05-19T08:02:49.910Z,69
2023-05-19T08:07:59.305Z,65
2023-05-19T08:09:42.552Z,64
2023-05-19T08:11:25.959Z,63
2023-05-19T08:13:09.351Z,62
2023-05-19T08:14:52.756Z,62
2023-05-19T08:16:36.141Z,61
2023-05-19T08:18:19.533Z,61
2023-05-19T08:20:02.915Z,61
2023-05-19T08:25:12.220Z,66
2023-05-19T08:26:55.558Z,69
2023-05-19T08:28:38.958Z,72
2023-05-19T08:30:22.384Z,73
2023-05-19T08:32:05.823Z,70
2023-05-19T08:33:49.172Z,69
2023-05-19T08:35:32.557Z,69
2023-05-19T08:37:15.985Z,70
2023-05-19T08:42:25.209Z,66
2023-05-19T08:44:08.594Z,220
2023-05-19T08:45:52.129Z,247
2023-05-19T08:47:35.385Z,263
2023-05-19T08:49:18.794Z,263
2023-05-19T08:51:02.243Z,256
2023-05-19T08:52:45.711Z,272
2023-05-19T08:54:29.125Z,279
2023-05-19T08:59:38.400Z,277
2023-05-19T09:01:21.725Z,256
2023-05-19T09:03:05.149Z,244
2023-05-19T09:04:48.454Z,241
2023-05-19T09:06:31.897Z,249
2023-05-19T09:08:15.400Z,264
2023-05-19T09:09:58.589Z,282
2023-05-19T09:11:42.136Z,297
2023-05-19T09:16:51.222Z,293
2023-05-19T09:18:34.845Z,312
2023-05-19T09:20:17.996Z,330
2023-05-19T09:22:01.584Z,343
2023-05-19T09:23:44.793Z,343
2023-05-19T09:25:28.363Z,331
2023-05-19T09:27:11.703Z,312
2023-05-19T09:28:54.991Z,298
2023-05-19T09:34:04.412Z,286
2023-05-19T09:35:47.762Z,286
2023-05-19T09:37:31.147Z,293
2023-05-19T09:39:14.577Z,302
2023-05-19T09:40:57.988Z,319
2023-05-19T09:42:41.450Z,345
2023-05-19T09:44:24.773Z,360
2023-05-19T09:46:08.161Z,358
2023-05-19T09:51:17.488Z,299
2023-05-19T09:53:00.785Z,286
2023-05-19T09:54:44.208Z,283
2023-05-19T09:56:27.585Z,294
2023-05-19T09:58:10.842Z,300
2023-05-19T09:59:54.436Z,290
2023-05-19T10:01:38.155Z,276
2023-05-19T10:03:21.228Z,259
2023-05-19T10:06:47.656Z,253
2023-05-19T10:08:31.122Z,273
2023-05-19T10:10:14.429Z,302
2023-05-19T10:11:57.728Z,316
2023-05-19T10:13:41.263Z,310
2023-05-19T10:15:24.432Z,275
2023-05-19T10:17:08.068Z,234
2023-05-19T10:18:51.391Z,208
2023-05-19T10:22:17.883Z,198
2023-05-19T10:24:01.304Z,194
2023-05-19T10:25:44.653Z,181
2023-05-19T10:27:27.915Z,167
2023-05-19T10:29:11.453Z,159
2023-05-19T10:30:54.705Z,152
2023-05-19T10:32:38.198Z,147
2023-05-19T10:34:21.703Z,150
2023-05-19T10:37:48.148Z,172
2023-05-19T10:39:31.530Z,186
2023-05-19T10:41:14.762Z,186
2023-05-19T10:42:58.341Z,177
2023-05-19T10:44:41.655Z,159
2023-05-19T10:46:25.075Z,143
2023-05-19T10:48:08.519Z,139
2023-05-19T10:49:51.854Z,152
2023-05-19T10:53:18.371Z,203
2023-05-19T10:55:01.775Z,209
2023-05-19T10:56:45.018Z,208
2023-05-19T10:58:28.569Z,208
2023-05-19T11:00:11.794Z,214
2023-05-19T11:01:55.350Z,223
2023-05-19T11:03:38.711Z,216
2023-05-19T11:05:21.978Z,197
2023-05-19T11:08:48.562Z,199
2023-05-19T11:10:32.070Z,195
2023-05-19T11:12:15.325Z,198
2023-05-19T11:13:58.808Z,218
2023-05-19T11:15:42.131Z,234
2023-05-19T11:17:25.444Z,236
2023-05-19T11:19:08.966Z,227
2023-05-19T11:20:52.230Z,221
2023-05-19T11:26:01.489Z,229
2023-05-19T11:27:44.974Z,231
2023-05-19T11:29:28.349Z,231
2023-05-19T11:31:11.722Z,216
2023-05-19T11:32:55.107Z,200
2023-05-19T11:34:38.620Z,204
2023-05-19T11:36:21.956Z,209
2023-05-19T11:38:05.260Z,208
2023-05-19T11:41:31.722Z,205
2023-05-19T11:43:15.290Z,199
2023-05-19T11:44:58.649Z,188
2023-05-19T11:46:42.077Z,171
2023-05-19T11:48:25.335Z,165
2023-05-19T11:50:08.863Z,174
2023-05-19T11:51:52.199Z,183
2023-05-19T11:53:35.648Z,186
2023-05-19T11:55:19.021Z,188
2023-05-19T11:57:02.764Z,187
2023-05-19T11:58:46.055Z,186
2023-05-19T12:00:29.563Z,192
2023-05-19T12:02:12.970Z,195
2023-05-19T12:03:56.367Z,197
2023-05-19T12:05:39.630Z,206
2023-05-19T12:07:23.107Z,215
2023-05-19T12:09:06.565Z,219
2023-05-19T12:14:15.625Z,243
2023-05-19T12:15:59.012Z,255
2023-05-19T12:17:42.395Z,266
2023-05-19T12:19:26.006Z,277
2023-05-19T12:21:09.376Z,281
2023-05-19T12:22:52.571Z,280
2023-05-19T12:24:36.194Z,265
2023-05-19T12:26:19.524Z,255
2023-05-19T12:31:28.792Z,243
2023-05-19T12:33:12.180Z,234
2023-05-19T12:34:55.520Z,223
2023-05-19T12:36:38.918Z,210
2023-05-19T12:38:22.371Z,196
2023-05-19T12:40:05.574Z,181
2023-05-19T12:41:49.095Z,158
2023-05-19T12:43:32.430Z,149
2023-05-19T12:46:58.913Z,161
2023-05-19T12:48:42.407Z,176
2023-05-19T12:50:25.756Z,190
2023-05-19T12:52:09.204Z,205
2023-05-19T12:53:52.432Z,218
2023-05-19T12:55:35.923Z,226
2023-05-19T12:57:19.406Z,231
2023-05-19T12:59:02.809Z,233
2023-05-19T13:00:46.179Z,234
2023-05-19T13:04:12.497Z,233
2023-05-19T13:05:55.915Z,233
2023-05-19T13:07:39.303Z,237
2023-05-19T13:09:22.741Z,241
2023-05-19T13:11:06.106Z,244
2023-05-19T13:12:49.510Z,247
2023-05-19T13:14:32.880Z,248
2023-05-19T13:16:16.285Z,244
2023-05-19T13:21:25.503Z,207
2023-05-19T13:23:08.993Z,199
2023-05-19T13:24:52.439Z,195
2023-05-19T13:26:35.843Z,194
2023-05-19T13:28:19.182Z,192
2023-05-19T13:30:02.699Z,196
2023-05-19T13:31:45.886Z,206
2023-05-19T13:33:29.474Z,211
2023-05-19T13:38:38.691Z,221
2023-05-19T13:40:21.931Z,223
2023-05-19T13:42:05.457Z,222
2023-05-19T13:43:48.782Z,226
2023-05-19T13:45:32.378Z,232
2023-05-19T13:47:15.507Z,237
2023-05-19T13:48:58.889Z,239
2023-05-19T13:50:42.474Z,237
2023-05-19T13:55:51.677Z,197
2023-05-19T13:57:34.945Z,188
2023-05-19T13:59:18.500Z,182
2023-05-19T14:01:01.911Z,185
2023-05-19T14:02:45.350Z,190
2023-05-19T14:04:28.538Z,187
2023-05-19T14:06:12.083Z,186
2023-05-19T14:07:55.452Z,184
2023-05-19T14:09:38.895Z,183
2023-05-19T14:13:05.458Z,158
2023-05-19T14:14:48.700Z,139
2023-05-19T14:16:32.058Z,124
2023-05-19T14:18:15.530Z,114
2023-05-19T14:19:58.942Z,108
2023-05-19T14:21:42.194Z,107
2023-05-19T14:23:25.719Z,105
2023-05-19T14:25:09.146Z,105
2023-05-19T14:30:18.320Z,114
2023-05-19T14:32:01.629Z,116
2023-05-19T14:33:45.113Z,125
2023-05-19T14:35:28.553Z,125
2023-05-19T14:37:11.933Z,140
2023-05-19T14:38:55.370Z,145
2023-05-19T14:40:38.715Z,146
2023-05-19T14:42:22.194Z,147
2023-05-19T14:44:05.491Z,144
2023-05-19T14:47:32.022Z,139
2023-05-19T14:49:15.374Z,134
2023-05-19T14:50:58.677Z,130
2023-05-19T14:52:42.223Z,127
2023-05-19T14:54:25.665Z,127
2023-05-19T14:56:08.810Z,125
2023-05-19T14:57:52.394Z,126
2023-05-19T14:59:35.810Z,126
2023-05-19T15:04:44.958Z,131
2023-05-19T15:06:28.248Z,135
2023-05-19T15:08:11.746Z,136
2023-05-19T15:09:55.247Z,142
2023-05-19T15:11:38.553Z,146
2023-05-19T15:13:22.004Z,146
2023-05-19T15:15:06.488Z,150
2023-05-19T15:16:48.646Z,144
2023-05-19T15:20:15.248Z,166
2023-05-19T15:21:58.579Z,167
2023-05-19T15:23:42.127Z,166
2023-05-19T15:25:25.434Z,165
2023-05-19T15:27:08.809Z,164
2023-05-19T15:28:52.146Z,163
2023-05-19T15:30:35.501Z,149
2023-05-19T15:32:18.942Z,171
2023-05-19T15:37:28.341Z,180
2023-05-19T15:39:11.501Z,180
2023-05-19T15:40:54.901Z,183
2023-05-19T15:42:38.300Z,178
2023-05-19T15:44:21.858Z,193
2023-05-19T15:46:05.382Z,197
2023-05-19T15:47:48.627Z,196
2023-05-19T15:49:32.088Z,202
2023-05-19T15:52:58.370Z,207
2023-05-19T15:54:41.763Z,207
2023-05-19T15:56:25.208Z,204
2023-05-19T15:58:08.658Z,209
2023-05-19T15:59:52.056Z,219
2023-05-19T16:01:35.447Z,265
2023-05-19T16:03:18.921Z,246
2023-05-19T16:05:02.324Z,317
2023-05-19T16:10:11.506Z,777
2023-05-19T16:11:54.781Z,481
2023-05-19T16:13:38.324Z,757
2023-05-19T16:15:21.709Z,649
2023-05-19T16:17:05.133Z,777
2023-05-19T16:18:48.479Z,443
2023-05-19T16:20:31.757Z,430
2023-05-19T16:22:15.154Z,424
2023-05-19T16:27:24.433Z,608
2023-05-19T16:29:07.934Z,654
2023-05-19T16:30:51.218Z,714
2023-05-19T16:32:34.645Z,777
2023-05-19T16:34:18.201Z,777
2023-05-19T16:36:01.634Z,778
2023-05-19T16:37:44.939Z,777
2023-05-19T16:39:28.365Z,777
2023-05-19T16:41:11.603Z,776
2023-05-19T16:42:55.504Z,777
2023-05-19T16:44:38.817Z,778
2023-05-19T16:46:22.264Z,778
2023-05-19T16:48:05.618Z,778
2023-05-19T16:49:49.017Z,778
2023-05-19T16:51:32.415Z,777
2023-05-19T16:53:15.821Z,777
2023-05-19T16:54:59.133Z,777
2023-05-19T17:00:08.277Z,271
2023-05-19T17:01:51.685Z,202
2023-05-19T17:03:35.097Z,182
2023-05-19T17:05:18.470Z,332
2023-05-19T17:07:01.878Z,422
2023-05-19T17:08:45.269Z,268
2023-05-19T17:10:28.668Z,195
2023-05-19T17:12:12.069Z,187
2023-05-19T17:15:38.538Z,505
2023-05-19T17:17:21.932Z,599
2023-05-19T17:19:05.330Z,695
2023-05-19T17:20:48.714Z,757
2023-05-19T17:22:32.155Z,724
2023-05-19T17:25:59.115Z,761
2023-05-19T17:27:42.470Z,537
2023-05-19T17:31:08.968Z,242
2023-05-19T17:32:52.262Z,294
2023-05-19T17:34:35.647Z,254
2023-05-19T17:36:19.082Z,382
2023-05-19T17:38:02.587Z,349
2023-05-19T17:39:45.756Z,239
2023-05-19T17:41:29.322Z,182
2023-05-19T17:43:12.570Z,174
2023-05-19T17:48:21.934Z,101
2023-05-19T17:50:05.321Z,95
2023-05-19T17:51:48.743Z,94
2023-05-19T17:53:32.199Z,85
2023-05-19T17:55:15.551Z,83
2023-05-19T17:56:58.892Z,84
2023-05-19T17:58:42.156Z,91
2023-05-19T18:00:25.709Z,104
2023-05-19T18:03:52.189Z,112
2023-05-19T18:05:35.558Z,106
2023-05-19T18:07:19.062Z,94
2023-05-19T18:09:02.466Z,92
2023-05-19T18:10:45.754Z,86
2023-05-19T18:12:29.193Z,85
2023-05-19T18:14:12.479Z,83
2023-05-19T18:15:55.818Z,74
2023-05-19T18:19:22.387Z,69
2023-05-19T18:21:05.871Z,68
2023-05-19T18:22:49.257Z,64
2023-05-19T18:24:32.625Z,63
2023-05-19T18:31:28.258Z,56
2023-05-19T18:34:52.710Z,42
2023-05-19T18:36:36.057Z,40
2023-05-19T18:38:19.380Z,36
2023-05-19T18:40:02.815Z,32
2023-05-19T18:41:46.116Z,29
2023-05-19T18:43:29.686Z,25
2023-05-19T18:45:13.007Z,22
2023-05-19T18:46:56.509Z,19
2023-05-19T18:50:22.809Z,17
2023-05-19T18:52:06.244Z,15
2023-05-19T18:53:49.612Z,11
2023-05-19T18:55:33.076Z,10
2023-05-19T18:57:16.366Z,9
2023-05-19T18:58:59.763Z,7
2023-05-19T19:00:43.265Z,5
2023-05-19T19:02:26.795Z,5
2023-05-19T19:04:10.432Z,4
2023-05-19T19:05:53.664Z,4
2023-05-19T19:07:37.158Z,4
2023-05-19T19:09:20.561Z,3
2023-05-19T19:11:04.011Z,3
2023-05-19T19:12:47.446Z,3
2023-05-19T19:14:30.788Z,2
2023-05-19T19:16:14.038Z,2
2023-05-19T19:21:23.301Z,1
2023-05-19T19:23:06.953Z,1
2023-05-19T19:24:50.086Z,1
2023-05-19T19:26:33.618Z,1
2023-05-19T19:28:16.911Z,1
2023-05-19T19:30:00.250Z,2
2023-05-19T19:31:43.661Z,0
2023-05-19T19:33:27.225Z,1
2023-05-19T19:36:53.579Z,0
2023-05-19T19:38:37.015Z,0
2023-05-19T19:40:20.357Z,1
2023-05-19T19:42:03.682Z,1
2023-05-19T19:43:47.164Z,1
2023-05-19T19:45:30.479Z,1
2023-05-19T19:47:14.093Z,1
2023-05-19T19:48:57.277Z,1
2023-05-19T19:50:40.686Z,1
2023-05-19T19:54:07.337Z,0
2023-05-19T19:55:50.562Z,1
2023-05-19T19:57:34.028Z,0
2023-05-19T19:59:17.556Z,1
2023-05-19T20:01:00.953Z,1
2023-05-19T20:02:44.252Z,1
2023-05-19T20:04:27.716Z,1
2023-05-19T20:06:11.089Z,1
2023-05-19T20:09:37.408Z,1
2023-05-19T20:11:20.970Z,1
2023-05-19T20:13:04.351Z,1
2023-05-19T20:14:47.635Z,1
2023-05-19T20:16:31.091Z,1
2023-05-19T20:18:14.580Z,1
2023-05-19T20:19:58.026Z,1
2023-05-19T20:21:41.422Z,1
2023-05-19T20:23:24.746Z,1
2023-05-19T20:25:08.519Z,1
2023-05-19T20:26:51.663Z,1
2023-05-19T20:28:35.080Z,0
2023-05-19T20:30:18.468Z,1
2023-05-19T20:32:01.912Z,0
2023-05-19T20:33:45.360Z,1
2023-05-19T20:35:28.640Z,2
2023-05-19T20:37:12.145Z,0
2023-05-19T20:42:21.470Z,1
2023-05-19T20:44:04.801Z,1
2023-05-19T20:45:48.065Z,0
2023-05-19T20:47:31.468Z,1
2023-05-19T20:49:15.024Z,1
2023-05-19T20:50:58.364Z,0
2023-05-19T20:52:41.676Z,2
2023-05-19T20:54:25.054Z,1
2023-05-19T20:56:08.460Z,1
2023-05-19T20:59:34.942Z,558
2023-05-19T21:01:18.324Z,552
2023-05-19T21:03:01.715Z,546
2023-05-19T21:04:45.113Z,1
2023-05-19T21:06:28.512Z,1
2023-05-19T21:08:11.921Z,1
2023-05-19T21:09:55.303Z,1
2023-05-19T21:11:38.714Z,0
2023-05-19T21:15:05.165Z,0
2023-05-19T21:16:48.698Z,1
2023-05-19T21:18:32.014Z,0
2023-05-19T21:20:15.489Z,0
2023-05-19T21:21:58.857Z,1
2023-05-19T21:23:42.362Z,0
2023-05-19T21:25:25.735Z,1
2023-05-19T21:27:09.143Z,0
2023-05-19T21:32:18.305Z,1
2023-05-19T21:34:01.750Z,1
2023-05-19T21:35:45.113Z,1
2023-05-19T21:37:28.533Z,0
2023-05-19T21:39:11.864Z,1
2023-05-19T21:40:55.293Z,1
2023-05-19T21:42:38.692Z,1
2023-05-19T21:44:22.074Z,1
2023-05-19T21:46:05.535Z,1
2023-05-19T21:47:49.236Z,1
2023-05-19T21:49:32.639Z,1
2023-05-19T21:51:15.972Z,1
2023-05-19T21:52:59.506Z,1
2023-05-19T21:54:42.673Z,1
2023-05-19T21:56:26.213Z,1
2023-05-19T21:58:09.697Z,0
2023-05-19T21:59:52.988Z,1
2023-05-19T22:01:36.406Z,1
2023-05-19T22:03:20.093Z,1
2023-05-19T22:05:03.417Z,1
2023-05-19T22:06:46.880Z,1
2023-05-19T22:08:30.254Z,0
2023-05-19T22:10:13.709Z,1
2023-05-19T22:11:56.901Z,0
2023-05-19T22:13:40.475Z,1
2023-05-19T22:15:23.780Z,1
2023-05-19T22:20:33.056Z,0
2023-05-19T22:22:16.499Z,1
2023-05-19T22:23:59.836Z,1
2023-05-19T22:25:43.300Z,1
2023-05-19T22:27:26.690Z,1
2023-05-19T22:29:10.138Z,1
2023-05-19T22:30:53.476Z,1
2023-05-19T22:32:36.721Z,0
2023-05-19T22:34:20.121Z,1
2023-05-19T22:36:03.925Z,1
2023-05-19T22:37:47.272Z,1
2023-05-19T22:39:30.734Z,1
2023-05-19T22:41:14.166Z,1
2023-05-19T22:42:57.680Z,1
2023-05-19T22:44:40.976Z,1
2023-05-19T22:46:24.358Z,1
2023-05-19T22:48:07.806Z,1
2023-05-19T22:53:16.982Z,1
2023-05-19T22:55:00.352Z,1
2023-05-19T22:56:43.727Z,1
2023-05-19T22:58:27.161Z,1
2023-05-19T23:00:10.552Z,0
2023-05-19T23:01:53.801Z,1
2023-05-19T23:03:37.296Z,1
2023-05-19T23:05:20.613Z,1
2023-05-19T23:10:30.011Z,1
2023-05-19T23:12:13.371Z,0
2023-05-19T23:13:56.628Z,1
2023-05-19T23:15:40.094Z,1
2023-05-19T23:17:23.560Z,1
2023-05-19T23:19:06.948Z,1
2023-05-19T23:20:50.330Z,1
2023-05-19T23:22:33.605Z,1
2023-05-19T23:27:42.860Z,1
2023-05-19T23:29:26.412Z,1
2023-05-19T23:31:09.766Z,1
2023-05-19T23:32:53.137Z,1
2023-05-19T23:34:36.428Z,0
2023-05-19T23:36:19.932Z,1
2023-05-19T23:38:03.422Z,1
2023-05-19T23:39:46.729Z,1
2023-05-19T23:44:55.986Z,1
2023-05-19T23:46:39.343Z,0
2023-05-19T23:48:22.665Z,2
2023-05-19T23:50:06.248Z,1
2023-05-19T23:51:49.587Z,1
2023-05-19T23:53:33.008Z,1
2023-05-19T23:55:16.395Z,1
2023-05-19T23:56:59.741Z,0
